Ana Sayfa
METAR-TAF:

METAR-TAF

Havaalanları :

Albury, Avustralya

Enlem: 36-04-06S, Boylam: 146-57-30E, yükseklik: 164 m

Güncel hava durumu gözlemi

Rapor saat 17:00 UTC de 51 dakika önce yapıldı.
Sakin rüzgar
Sıcaklık 16°C
Nem 68%
Basınç 1010 hPa
Görüş mesafesi 10 km veya daha fazla

METAR: YMAY 141700Z AUTO 00000KT 9999 // NCD 16/10 Q1010

Saat: 04:51 (17:51 UTC)


TAF: eksik

4.000'den fazla havaalanı için hava durumu gözlemleri ve tahminleri (METAR ve TAF raporları).

Kullanılabilir istasyonlar harita üzerinde sarı ve kırmızı noktalarla gösterilir.

İstasyonun adını görmek için fareyi noktanın üzerinde gezdirin.

Sonrasında hava gözlem ve tahminlerini görmek için tıklayın.

Haritayı değiştirmek için: yaklaştırmak için siyah artı işaretli yeşil düğmeye ve uzaklaştırmak için de eksi işaretli düğmeye hızla tıklayın; bitişik haritalar için yeşil okları kullanın.


METAR-TAF: